Time;durP1;ratioP1;P1;durP2;ratioP2;P2;SDS_P1;SDS_P2;PMS_P1;PMS_P2;Temp;Humidity;BMP_temperature;BMP_pressure;BME280_temperature;BME280_humidity;BME280_pressure;Samples;Min_cycle;Max_cycle;Signal;HPM_P1;HPM_P2
2021/12/22 00:00:51;;;;;;;13.20;10.13;;;-2.30;99.90;;;;;;5002293;28;20258;-75
2021/12/22 00:03:38;;;;;;;12.02;9.23;;;-2.20;99.90;;;;;;5015551;28;20229;-75
2021/12/22 00:06:26;;;;;;;17.38;11.65;;;-2.30;99.90;;;;;;5003537;28;20620;-75
2021/12/22 00:09:13;;;;;;;14.00;9.38;;;-2.30;99.90;;;;;;5004964;28;20210;-75
2021/12/22 00:11:59;;;;;;;15.20;10.50;;;-2.20;99.90;;;;;;5004011;28;20209;-75
2021/12/22 00:14:45;;;;;;;13.65;9.13;;;-2.20;99.90;;;;;;5018408;28;20802;-74
2021/12/22 00:17:30;;;;;;;14.70;8.90;;;-2.30;99.90;;;;;;5018022;28;20205;-75
2021/12/22 00:20:17;;;;;;;16.50;10.82;;;-2.30;99.90;;;;;;5010838;28;20406;-75
2021/12/22 00:23:02;;;;;;;12.57;9.55;;;-2.40;99.90;;;;;;5006057;28;20572;-74
2021/12/22 00:25:50;;;;;;;15.18;8.75;;;-2.30;99.90;;;;;;5011600;28;20779;-74
2021/12/22 00:28:35;;;;;;;14.70;10.13;;;-2.40;99.90;;;;;;5005902;28;20682;-73
2021/12/22 00:31:22;;;;;;;18.67;11.40;;;-2.50;99.90;;;;;;5008419;28;20596;-71
2021/12/22 00:34:15;;;;;;;16.75;10.95;;;-2.60;99.90;;;;;;5007218;28;20332;-71
2021/12/22 00:37:01;;;;;;;18.00;11.18;;;-2.50;99.90;;;;;;5011344;28;20198;-74
2021/12/22 00:39:47;;;;;;;14.18;9.70;;;-2.60;99.90;;;;;;5006680;28;20278;-74
2021/12/22 00:42:34;;;;;;;19.60;10.50;;;-2.50;99.90;;;;;;5016289;28;20236;-75
2021/12/22 00:45:23;;;;;;;13.73;9.00;;;-2.70;99.90;;;;;;5010038;28;20342;-74
2021/12/22 00:48:11;;;;;;;15.30;9.45;;;-2.60;99.90;;;;;;5016551;28;20317;-74
2021/12/22 00:50:57;;;;;;;19.77;9.50;;;-2.70;99.90;;;;;;5016988;28;20246;-74
2021/12/22 00:53:43;;;;;;;15.43;8.23;;;-2.70;99.90;;;;;;5011155;28;20201;-74
2021/12/22 00:56:29;;;;;;;12.25;8.57;;;-2.70;99.90;;;;;;5014494;28;20633;-74
2021/12/22 00:59:17;;;;;;;13.35;10.18;;;-2.60;99.90;;;;;;5008527;28;20272;-74
2021/12/22 01:02:06;;;;;;;13.65;8.05;;;-2.70;99.90;;;;;;5018419;28;20201;-74
2021/12/22 01:04:52;;;;;;;12.90;8.90;;;-2.70;99.90;;;;;;5023245;28;20225;-74
2021/12/22 01:07:37;;;;;;;13.48;8.57;;;-2.70;99.90;;;;;;5016042;28;20202;-74
2021/12/22 01:10:26;;;;;;;12.73;8.13;;;-2.70;99.90;;;;;;5013304;28;20202;-74
2021/12/22 01:13:13;;;;;;;12.98;8.98;;;-2.70;99.90;;;;;;5017527;28;20206;-74
2021/12/22 01:16:00;;;;;;;13.55;8.63;;;-2.60;99.90;;;;;;5021291;28;20589;-74
2021/12/22 01:18:46;;;;;;;13.00;9.52;;;-2.70;99.90;;;;;;5020244;28;20198;-74
2021/12/22 01:21:39;;;;;;;9.32;7.65;;;-2.70;99.90;;;;;;5014843;28;20257;-74
2021/12/22 01:24:31;;;;;;;12.48;8.93;;;-2.60;99.90;;;;;;5016707;28;20229;-74
2021/12/22 01:27:22;;;;;;;15.40;9.65;;;-2.40;99.90;;;;;;5014554;28;20253;-74
2021/12/22 01:30:11;;;;;;;13.52;8.52;;;-2.40;99.90;;;;;;5008646;28;20197;-74
2021/12/22 01:33:00;;;;;;;16.65;9.07;;;-2.60;99.90;;;;;;5019695;28;20209;-75
2021/12/22 01:35:46;;;;;;;12.80;9.02;;;-2.70;99.90;;;;;;5022927;28;20278;-74
2021/12/22 01:38:32;;;;;;;14.02;8.60;;;-2.90;99.90;;;;;;5011567;28;20198;-74
2021/12/22 01:41:17;;;;;;;13.50;9.02;;;-2.80;99.90;;;;;;5008286;28;20574;-74
2021/12/22 01:44:05;;;;;;;12.57;7.75;;;-2.70;99.90;;;;;;5011109;28;20704;-74
2021/12/22 01:50:00;;;;;;;13.50;8.38;;;-2.80;99.90;;;;;;5018731;28;20236;-74
2021/12/22 01:52:45;;;;;;;12.85;9.30;;;-2.80;99.90;;;;;;5016711;28;20194;-74
2021/12/22 01:55:37;;;;;;;9.07;7.82;;;-2.90;99.90;;;;;;5020855;28;20221;-74
2021/12/22 01:58:34;;;;;;;14.88;9.13;;;-2.80;99.90;;;;;;5010819;28;20614;-74
2021/12/22 02:01:20;;;;;;;10.75;8.13;;;-2.80;99.90;;;;;;5005171;28;20194;-74
2021/12/22 02:04:10;;;;;;;12.75;7.72;;;-2.80;99.90;;;;;;5003578;28;20226;-74
2021/12/22 02:06:57;;;;;;;9.45;6.75;;;-3.00;99.90;;;;;;5015855;28;20691;-74
2021/12/22 02:10:03;;;;;;;10.82;6.97;;;-2.90;99.90;;;;;;4995423;28;20246;-74
2021/12/22 02:12:52;;;;;;;10.35;8.20;;;-3.00;99.90;;;;;;4995207;28;20301;-74
2021/12/22 02:15:38;;;;;;;10.98;8.20;;;-2.90;99.90;;;;;;4997876;28;20210;-74
2021/12/22 02:18:25;;;;;;;10.00;7.20;;;-2.80;99.90;;;;;;5003303;28;20218;-74
2021/12/22 02:21:13;;;;;;;13.13;8.20;;;-3.00;99.90;;;;;;5003490;28;20209;-74
2021/12/22 02:23:59;;;;;;;10.32;7.00;;;-2.90;99.90;;;;;;5016994;28;20579;-74
2021/12/22 02:26:50;;;;;;;11.20;8.13;;;-2.80;99.90;;;;;;5023502;28;20197;-74
2021/12/22 02:29:37;;;;;;;9.88;7.13;;;-2.70;99.90;;;;;;5011377;28;20202;-74
2021/12/22 02:32:42;;;;;;;10.20;7.22;;;-2.70;99.90;;;;;;5012359;28;20209;-74
2021/12/22 02:35:40;;;;;;;10.77;7.95;;;-2.80;99.90;;;;;;5017270;28;20261;-74
2021/12/22 02:38:27;;;;;;;13.90;8.30;;;-2.70;99.90;;;;;;5011454;28;20205;-74
2021/12/22 02:41:15;;;;;;;11.05;8.57;;;-2.60;99.90;;;;;;5011129;28;20340;-74
2021/12/22 02:44:01;;;;;;;16.85;11.32;;;-2.60;99.90;;;;;;5007597;28;20238;-74
2021/12/22 02:46:46;;;;;;;21.85;12.60;;;-2.80;99.90;;;;;;5024271;28;20198;-74
2021/12/22 02:49:32;;;;;;;22.45;14.38;;;-3.00;99.90;;;;;;5020791;28;20205;-74
2021/12/22 02:52:18;;;;;;;25.40;13.52;;;-2.80;99.90;;;;;;5020524;28;20206;-74
2021/12/22 02:55:06;;;;;;;22.42;13.18;;;-2.80;99.90;;;;;;5022420;28;20221;-74
2021/12/22 02:57:53;;;;;;;16.42;11.50;;;-2.80;99.90;;;;;;5021495;28;20210;-74
2021/12/22 03:00:49;;;;;;;14.85;10.45;;;-2.80;99.90;;;;;;5007797;28;20701;-74
2021/12/22 03:03:51;;;;;;;25.33;17.70;;;-3.00;99.90;;;;;;5021974;28;20337;-74
2021/12/22 03:06:43;;;;;;;21.48;14.38;;;-3.20;99.90;;;;;;5018191;28;20205;-74
2021/12/22 03:09:30;;;;;;;21.08;12.75;;;-3.20;99.90;;;;;;5018957;28;20565;-73
2021/12/22 03:12:17;;;;;;;27.50;13.35;;;-3.20;99.90;;;;;;5021213;28;20209;-74
2021/12/22 03:15:06;;;;;;;18.38;11.13;;;-3.30;99.90;;;;;;5016836;28;20217;-74
2021/12/22 03:17:52;;;;;;;16.95;11.35;;;-3.30;99.90;;;;;;5023791;28;20360;-74
2021/12/22 03:20:37;;;;;;;17.83;11.27;;;-3.20;99.90;;;;;;5008125;28;20214;-74
2021/12/22 03:23:23;;;;;;;18.27;10.15;;;-3.10;99.90;;;;;;5016012;28;20233;-74
2021/12/22 03:26:08;;;;;;;15.23;8.95;;;-3.00;99.90;;;;;;5020790;28;20288;-74
2021/12/22 03:28:56;;;;;;;13.80;9.10;;;-3.10;99.90;;;;;;5019938;28;20280;-74
2021/12/22 03:31:42;;;;;;;14.88;9.52;;;-3.10;99.90;;;;;;5020539;28;20202;-74
2021/12/22 03:34:28;;;;;;;15.73;9.23;;;-3.00;99.90;;;;;;5016488;28;20280;-74
2021/12/22 03:37:14;;;;;;;13.82;9.85;;;-3.10;99.90;;;;;;5017038;28;20205;-74
2021/12/22 03:39:59;;;;;;;16.75;9.38;;;-3.10;99.90;;;;;;5011774;28;20221;-74
2021/12/22 03:42:45;;;;;;;12.23;9.65;;;-2.90;99.90;;;;;;5018840;28;20205;-74
2021/12/22 03:45:32;;;;;;;16.27;9.20;;;-2.90;99.90;;;;;;5013282;28;20608;-74
2021/12/22 03:48:18;;;;;;;19.35;11.05;;;-2.90;99.90;;;;;;5007458;28;20206;-74
2021/12/22 03:51:04;;;;;;;18.85;11.32;;;-3.10;99.90;;;;;;5016939;28;20570;-74
2021/12/22 03:53:50;;;;;;;11.43;8.77;;;-3.30;99.90;;;;;;5016287;28;20210;-74
2021/12/22 03:56:36;;;;;;;13.38;8.93;;;-3.30;99.90;;;;;;5021178;28;20244;-74
2021/12/22 03:59:23;;;;;;;13.82;9.15;;;-3.30;99.90;;;;;;5010237;28;20207;-74
2021/12/22 04:02:10;;;;;;;17.30;9.77;;;-3.40;99.90;;;;;;5015050;28;20210;-74
2021/12/22 04:04:55;;;;;;;15.18;10.05;;;-3.50;99.90;;;;;;5017709;28;20389;-74
2021/12/22 04:07:41;;;;;;;17.17;9.32;;;-3.40;99.90;;;;;;5012979;28;20288;-74
2021/12/22 04:10:27;;;;;;;12.57;8.80;;;-3.30;99.90;;;;;;5009560;28;20325;-74
2021/12/22 04:13:13;;;;;;;12.60;9.50;;;-3.20;99.90;;;;;;5009018;28;20268;-74
2021/12/22 04:15:59;;;;;;;12.25;9.18;;;-3.10;99.90;;;;;;5010913;28;20230;-74
2021/12/22 04:18:46;;;;;;;12.35;8.50;;;-3.20;99.90;;;;;;5008042;28;20206;-74
2021/12/22 04:21:32;;;;;;;14.95;9.20;;;-3.20;99.90;;;;;;5018005;28;20233;-74
2021/12/22 04:24:17;;;;;;;15.27;9.52;;;-3.40;99.90;;;;;;5013986;28;20277;-73
2021/12/22 04:27:03;;;;;;;13.57;10.05;;;-3.40;99.90;;;;;;5011460;28;20216;-74
2021/12/22 04:29:49;;;;;;;15.27;9.10;;;-3.40;99.90;;;;;;5017327;28;20210;-74
2021/12/22 04:32:35;;;;;;;13.75;9.10;;;-3.40;99.90;;;;;;5020614;28;20718;-74
2021/12/22 04:35:22;;;;;;;13.85;8.38;;;-3.40;99.90;;;;;;5017314;28;20761;-74
2021/12/22 04:38:07;;;;;;;13.90;8.90;;;-3.30;99.90;;;;;;5009787;28;20676;-74
2021/12/22 04:40:53;;;;;;;17.10;9.25;;;-3.20;99.90;;;;;;5011067;28;20247;-74
2021/12/22 04:43:39;;;;;;;16.80;8.73;;;-3.20;99.90;;;;;;5027692;28;20324;-73
2021/12/22 04:46:25;;;;;;;11.38;8.73;;;-3.20;99.90;;;;;;5006366;28;20711;-74
2021/12/22 04:49:10;;;;;;;13.98;8.10;;;-3.20;99.90;;;;;;5002159;28;20201;-73
2021/12/22 04:51:59;;;;;;;15.98;10.63;;;-3.30;99.90;;;;;;5013042;28;20678;-73
2021/12/22 04:54:50;;;;;;;13.95;9.30;;;-3.20;99.90;;;;;;5014493;28;20221;-74
2021/12/22 04:57:36;;;;;;;12.40;8.80;;;-3.20;99.90;;;;;;5015014;28;20277;-74
2021/12/22 05:00:22;;;;;;;11.20;8.63;;;-3.20;99.90;;;;;;5009643;28;20273;-74
2021/12/22 05:03:08;;;;;;;14.80;9.23;;;-3.20;99.90;;;;;;5013676;28;20248;-74
2021/12/22 05:05:54;;;;;;;13.43;9.13;;;-3.40;99.90;;;;;;5019910;28;20720;-74
2021/12/22 05:08:41;;;;;;;13.20;8.60;;;-3.30;99.90;;;;;;5007228;28;20198;-74
2021/12/22 05:11:26;;;;;;;12.80;8.55;;;-3.30;99.90;;;;;;5014584;28;20672;-74
2021/12/22 05:14:12;;;;;;;14.00;9.23;;;-3.40;99.90;;;;;;5005725;28;20336;-74
2021/12/22 05:17:01;;;;;;;13.38;9.98;;;-3.50;99.90;;;;;;5023467;28;20205;-74
2021/12/22 05:19:47;;;;;;;11.70;9.85;;;-3.50;99.90;;;;;;5012660;28;20287;-74
2021/12/22 05:22:32;;;;;;;20.02;10.63;;;-3.70;99.90;;;;;;5017412;28;20249;-74
2021/12/22 05:25:19;;;;;;;14.10;9.80;;;-3.90;99.90;;;;;;4998747;28;20222;-74
2021/12/22 05:28:05;;;;;;;16.50;10.00;;;-3.80;99.90;;;;;;5024658;28;20685;-74
2021/12/22 05:30:51;;;;;;;13.35;9.60;;;-3.90;99.90;;;;;;5024846;28;20209;-74
2021/12/22 05:33:36;;;;;;;13.43;9.00;;;-3.80;99.90;;;;;;5022094;28;20221;-74
2021/12/22 05:36:22;;;;;;;18.25;9.75;;;-3.80;99.90;;;;;;5021855;28;20709;-74
2021/12/22 05:39:08;;;;;;;14.35;9.60;;;-3.80;99.90;;;;;;5021330;28;20656;-74
2021/12/22 05:41:55;;;;;;;13.82;10.68;;;-3.80;99.90;;;;;;5035233;28;20287;-74
2021/12/22 05:44:42;;;;;;;14.63;10.07;;;-3.80;99.90;;;;;;5025848;28;20257;-74
2021/12/22 05:47:27;;;;;;;13.55;9.25;;;-3.80;99.90;;;;;;5015331;28;20282;-74
2021/12/22 05:50:13;;;;;;;14.38;10.40;;;-3.80;99.90;;;;;;5018952;28;20295;-74
2021/12/22 05:52:58;;;;;;;14.45;9.30;;;-3.80;99.90;;;;;;5023263;28;20679;-74
2021/12/22 05:55:44;;;;;;;12.70;9.82;;;-3.70;99.90;;;;;;5034982;28;20790;-74
2021/12/22 05:58:31;;;;;;;20.17;11.43;;;-3.60;99.90;;;;;;5013207;28;20206;-74
2021/12/22 06:01:17;;;;;;;15.88;9.23;;;-3.80;99.90;;;;;;5017017;28;20253;-74
2021/12/22 06:04:03;;;;;;;14.15;10.15;;;-3.70;99.90;;;;;;5019097;28;20233;-74
2021/12/22 06:06:49;;;;;;;13.85;10.50;;;-3.90;99.90;;;;;;5021200;28;20234;-74
2021/12/22 06:09:34;;;;;;;13.80;9.52;;;-3.80;99.90;;;;;;5019166;28;20400;-74
2021/12/22 06:12:20;;;;;;;15.88;9.05;;;-3.80;99.90;;;;;;5025469;28;20205;-74
2021/12/22 06:15:08;;;;;;;13.55;10.88;;;-3.70;99.90;;;;;;5024057;28;20707;-74
2021/12/22 06:17:57;;;;;;;13.18;9.90;;;-3.60;99.90;;;;;;5019894;28;20225;-74
2021/12/22 06:20:42;;;;;;;14.90;11.23;;;-3.60;99.90;;;;;;5023833;28;20571;-74
2021/12/22 06:23:28;;;;;;;13.88;11.50;;;-3.80;99.90;;;;;;5024145;28;20205;-74
2021/12/22 06:26:14;;;;;;;21.25;11.77;;;-3.70;99.90;;;;;;5016050;28;20241;-74
2021/12/22 06:29:00;;;;;;;14.95;10.95;;;-3.80;99.90;;;;;;5016502;28;20209;-74
2021/12/22 06:31:47;;;;;;;21.38;12.60;;;-3.70;99.90;;;;;;5017666;28;20277;-74
2021/12/22 06:34:32;;;;;;;17.63;11.30;;;-3.70;99.90;;;;;;5017409;28;20225;-74
2021/12/22 06:37:18;;;;;;;16.67;14.10;;;-3.80;99.90;;;;;;5011712;28;20214;-74
2021/12/22 06:40:06;;;;;;;18.60;13.43;;;-3.80;99.90;;;;;;5027284;28;20693;-74
2021/12/22 06:42:51;;;;;;;21.45;17.00;;;-4.00;99.90;;;;;;5022002;28;20582;-74
2021/12/22 06:45:37;;;;;;;23.65;16.52;;;-3.90;99.90;;;;;;5023562;28;20233;-74
2021/12/22 06:48:24;;;;;;;23.05;18.00;;;-4.00;99.90;;;;;;5019662;28;20226;-74
2021/12/22 06:51:09;;;;;;;21.17;15.43;;;-4.00;99.90;;;;;;5013850;28;20683;-74
2021/12/22 06:53:55;;;;;;;23.90;18.77;;;-3.90;99.90;;;;;;5015783;28;20515;-74
2021/12/22 06:56:41;;;;;;;24.77;16.35;;;-4.10;99.90;;;;;;5013795;28;20574;-73
2021/12/22 06:59:26;;;;;;;19.33;14.93;;;-4.10;99.90;;;;;;5012908;28;20198;-74
2021/12/22 07:02:13;;;;;;;25.50;14.57;;;-4.10;99.90;;;;;;5019280;28;20202;-74
2021/12/22 07:05:00;;;;;;;23.40;14.20;;;-4.00;99.90;;;;;;5015613;28;20592;-74
2021/12/22 07:07:46;;;;;;;19.73;14.55;;;-3.90;99.90;;;;;;5012388;28;20226;-74
2021/12/22 07:10:32;;;;;;;18.13;13.40;;;-3.90;99.90;;;;;;5024414;28;20205;-74
2021/12/22 07:13:17;;;;;;;15.23;11.82;;;-3.80;99.90;;;;;;5022318;28;20195;-74
2021/12/22 07:16:03;;;;;;;18.20;11.68;;;-3.70;99.90;;;;;;5011800;28;20218;-74
2021/12/22 07:18:49;;;;;;;19.52;13.25;;;-3.70;99.90;;;;;;5028055;28;20224;-74
2021/12/22 07:21:36;;;;;;;22.90;13.65;;;-3.50;99.90;;;;;;5016177;28;20726;-74
2021/12/22 07:24:22;;;;;;;18.90;13.50;;;-3.60;99.90;;;;;;5004993;28;20201;-74
2021/12/22 07:27:08;;;;;;;19.20;12.60;;;-3.80;99.90;;;;;;5011484;28;20229;-74
2021/12/22 07:29:53;;;;;;;15.93;11.07;;;-3.70;99.90;;;;;;5015814;28;20752;-74
2021/12/22 07:32:39;;;;;;;16.40;12.25;;;-3.80;99.90;;;;;;5023392;28;20205;-74
2021/12/22 07:35:31;;;;;;;16.63;11.70;;;-3.70;99.90;;;;;;5019158;28;20214;-74
2021/12/22 07:38:31;;;;;;;16.25;11.52;;;-3.70;99.90;;;;;;5026117;28;20221;-73
2021/12/22 07:41:17;;;;;;;18.48;12.60;;;-3.70;99.90;;;;;;5022977;28;20202;-73
2021/12/22 07:44:03;;;;;;;15.07;11.52;;;-3.70;99.90;;;;;;5032216;28;20209;-74
2021/12/22 07:46:49;;;;;;;16.10;11.50;;;-3.70;99.90;;;;;;5017228;28;20588;-73
2021/12/22 07:49:34;;;;;;;18.20;12.40;;;-3.80;99.90;;;;;;5020454;28;20296;-73
2021/12/22 07:52:20;;;;;;;23.88;12.73;;;-3.80;99.90;;;;;;5017567;28;20202;-73
2021/12/22 07:55:08;;;;;;;16.92;13.25;;;-3.80;99.90;;;;;;5024446;28;20289;-73
2021/12/22 07:57:54;;;;;;;18.83;12.10;;;-3.90;99.90;;;;;;5011264;28;20222;-74
2021/12/22 08:00:40;;;;;;;16.70;11.98;;;-3.90;99.90;;;;;;5004732;28;20206;-74
2021/12/22 08:03:26;;;;;;;15.75;11.90;;;-3.70;99.90;;;;;;5016426;28;20285;-73
2021/12/22 08:06:12;;;;;;;22.40;12.52;;;-3.60;99.90;;;;;;5010545;22;20337;-71
2021/12/22 08:08:58;;;;;;;18.00;13.38;;;-3.40;99.90;;;;;;5013369;28;20225;-71
2021/12/22 08:11:45;;;;;;;23.02;14.20;;;-3.40;99.90;;;;;;5022921;28;20198;-71
2021/12/22 08:14:31;;;;;;;16.65;13.18;;;-3.50;99.90;;;;;;5011424;28;20201;-71
2021/12/22 08:17:16;;;;;;;21.27;14.07;;;-3.50;99.90;;;;;;4995473;28;20551;-70
2021/12/22 08:20:03;;;;;;;22.30;14.60;;;-3.40;99.90;;;;;;4992338;28;20303;-70
2021/12/22 08:22:49;;;;;;;23.15;16.55;;;-3.40;99.90;;;;;;4986002;28;20215;-70
2021/12/22 08:25:35;;;;;;;27.85;17.30;;;-3.40;99.90;;;;;;4981941;28;20242;-70
2021/12/22 08:28:22;;;;;;;41.92;20.15;;;-3.50;99.90;;;;;;4982658;28;20261;-73
2021/12/22 08:31:07;;;;;;;70.80;36.58;;;-3.60;99.90;;;;;;4989605;28;20210;-73
2021/12/22 08:33:54;;;;;;;82.43;41.95;;;-3.50;99.90;;;;;;4988104;28;20206;-72
2021/12/22 08:39:44;;;;;;;55.15;31.73;;;-3.40;99.90;;;;;;4988531;28;20828;-73
2021/12/22 08:42:29;;;;;;;38.83;19.60;;;-3.30;99.90;;;;;;4987142;28;20203;-73
2021/12/22 08:45:17;;;;;;;35.97;20.88;;;-3.30;99.90;;;;;;4983629;28;20664;-73
2021/12/22 08:48:03;;;;;;;36.20;18.90;;;-3.20;99.90;;;;;;4985420;28;20207;-72
2021/12/22 08:50:49;;;;;;;47.33;27.98;;;-3.10;99.90;;;;;;4985219;28;20215;-73
2021/12/22 08:53:34;;;;;;;28.42;19.45;;;-3.10;99.90;;;;;;4987823;28;20257;-73
2021/12/22 08:56:20;;;;;;;67.18;33.20;;;-3.00;99.90;;;;;;4982822;28;20249;-73
2021/12/22 08:59:08;;;;;;;74.88;40.08;;;-3.10;99.90;;;;;;4988088;28;20210;-73
2021/12/22 09:01:55;;;;;;;35.17;21.65;;;-3.10;99.90;;;;;;4984301;28;20770;-73
2021/12/22 09:04:41;;;;;;;40.20;21.58;;;-3.00;99.90;;;;;;4982983;28;21086;-73
2021/12/22 09:07:27;;;;;;;25.27;17.60;;;-3.00;99.90;;;;;;4984520;28;20603;-73
2021/12/22 09:10:12;;;;;;;28.33;18.90;;;-2.90;99.90;;;;;;4983404;28;20210;-73
2021/12/22 09:12:58;;;;;;;29.48;18.25;;;-2.80;99.90;;;;;;4986994;28;20326;-73
2021/12/22 09:15:43;;;;;;;26.17;17.80;;;-2.70;99.90;;;;;;4984877;28;20307;-74
2021/12/22 09:18:30;;;;;;;23.65;16.08;;;-2.60;99.90;;;;;;4985318;28;20914;-74
2021/12/22 09:21:17;;;;;;;24.27;17.20;;;-2.60;99.90;;;;;;4986543;28;20259;-73
2021/12/22 09:24:03;;;;;;;26.92;18.65;;;-2.50;99.90;;;;;;4986956;28;20213;-73
2021/12/22 09:26:49;;;;;;;23.63;17.95;;;-2.30;99.90;;;;;;4985010;28;20239;-73
2021/12/22 09:29:36;;;;;;;26.38;18.08;;;-2.30;99.90;;;;;;4987069;28;20596;-73
2021/12/22 09:32:22;;;;;;;31.13;18.52;;;-2.30;99.90;;;;;;4985059;28;20700;-74
2021/12/22 09:35:10;;;;;;;25.20;17.85;;;-2.20;99.90;;;;;;4981725;28;20285;-73
2021/12/22 09:37:55;;;;;;;25.73;18.02;;;-2.20;99.90;;;;;;4986731;28;20247;-73
2021/12/22 09:40:41;;;;;;;30.42;19.25;;;-2.10;99.90;;;;;;4985303;28;20577;-73
2021/12/22 09:43:28;;;;;;;32.53;19.25;;;-2.10;99.90;;;;;;4986525;28;20202;-73
2021/12/22 09:46:18;;;;;;;25.35;18.30;;;-2.00;99.90;;;;;;4983920;28;20547;-73
2021/12/22 09:49:19;;;;;;;26.58;18.20;;;-2.00;99.90;;;;;;4987404;28;20210;-73
2021/12/22 09:52:21;;;;;;;26.90;18.50;;;-1.90;99.90;;;;;;4984923;28;20326;-73
2021/12/22 09:55:08;;;;;;;33.72;19.00;;;-1.90;99.90;;;;;;4981005;28;20221;-73
2021/12/22 09:57:55;;;;;;;38.60;21.13;;;-1.70;99.90;;;;;;4991352;28;20274;-73
2021/12/22 10:00:42;;;;;;;31.02;20.15;;;-1.70;99.90;;;;;;5011394;28;20214;-73
2021/12/22 10:03:28;;;;;;;31.25;18.92;;;-1.70;99.90;;;;;;5003569;28;20665;-74
2021/12/22 10:06:14;;;;;;;30.42;19.90;;;-1.50;99.90;;;;;;4973040;28;20235;-73
2021/12/22 10:09:05;;;;;;;31.35;20.35;;;-1.40;99.90;;;;;;4976880;28;20211;-73
2021/12/22 10:11:51;;;;;;;34.83;20.00;;;-1.30;99.90;;;;;;4987942;28;20293;-74
2021/12/22 10:14:48;;;;;;;25.83;18.40;;;-1.20;99.90;;;;;;4985592;28;20680;-73
2021/12/22 10:17:37;;;;;;;32.90;20.70;;;-1.00;99.90;;;;;;4989813;28;20207;-74
2021/12/22 10:20:24;;;;;;;31.27;21.65;;;-0.90;99.90;;;;;;4999590;28;20695;-74
2021/12/22 10:23:21;;;;;;;30.33;19.65;;;-0.80;99.90;;;;;;4984566;28;20719;-73
2021/12/22 10:26:11;;;;;;;32.33;18.75;;;-0.50;99.90;;;;;;4986228;28;20604;-73
2021/12/22 10:29:00;;;;;;;28.85;18.95;;;-0.20;99.90;;;;;;4990275;28;20207;-73
2021/12/22 10:31:46;;;;;;;29.10;17.83;;;0.30;99.90;;;;;;4990572;28;20276;-74
2021/12/22 10:34:32;;;;;;;30.10;17.65;;;0.80;99.90;;;;;;4989733;28;20435;-73
2021/12/22 10:37:35;;;;;;;26.17;17.73;;;1.40;99.90;;;;;;4988418;28;20203;-70
2021/12/22 10:40:26;;;;;;;27.70;17.23;;;1.90;99.90;;;;;;4994185;28;20207;-73
2021/12/22 10:43:19;;;;;;;24.67;16.38;;;2.40;99.90;;;;;;4988262;28;20203;-73
2021/12/22 10:46:06;;;;;;;27.75;16.80;;;2.90;99.90;;;;;;4990823;28;20708;-73
2021/12/22 10:49:17;;;;;;;25.88;18.25;;;3.30;99.90;;;;;;4990823;28;20206;-73
2021/12/22 10:52:05;;;;;;;22.70;16.17;;;3.30;99.90;;;;;;4996040;28;20211;-73
2021/12/22 10:54:51;;;;;;;27.55;16.30;;;3.30;99.90;;;;;;4987022;28;20223;-73
2021/12/22 10:57:38;;;;;;;24.13;15.77;;;3.20;99.90;;;;;;4992569;28;20731;-73
2021/12/22 11:00:26;;;;;;;31.88;16.17;;;3.10;99.90;;;;;;4997135;28;20227;-73
2021/12/22 11:03:14;;;;;;;31.90;18.05;;;3.10;99.90;;;;;;4980961;28;20215;-71
2021/12/22 11:06:02;;;;;;;26.48;17.05;;;3.10;99.90;;;;;;4979458;28;20239;-74
2021/12/22 11:08:59;;;;;;;25.52;18.23;;;3.00;99.90;;;;;;4985440;28;20210;-74
2021/12/22 11:11:50;;;;;;;25.50;17.58;;;3.10;99.90;;;;;;4983184;28;20203;-74
2021/12/22 11:14:40;;;;;;;30.25;17.27;;;3.00;99.90;;;;;;4979034;28;20206;-74
2021/12/22 11:17:28;;;;;;;26.98;18.35;;;3.10;99.90;;;;;;4984437;28;20290;-74
2021/12/22 11:20:13;;;;;;;25.17;15.88;;;3.20;99.90;;;;;;4979556;28;20207;-73
2021/12/22 11:23:00;;;;;;;28.60;17.70;;;3.10;99.90;;;;;;4986434;28;20369;-73
2021/12/22 11:25:46;;;;;;;24.67;17.30;;;3.00;99.90;;;;;;4989424;28;20346;-74
2021/12/22 11:28:33;;;;;;;26.45;17.75;;;2.90;99.90;;;;;;5008706;28;20206;-74
2021/12/22 11:31:20;;;;;;;29.95;16.92;;;2.90;99.90;;;;;;4975063;28;20283;-74
2021/12/22 11:34:07;;;;;;;27.05;16.00;;;2.90;99.90;;;;;;4988941;28;20241;-74
2021/12/22 11:36:53;;;;;;;21.05;14.73;;;2.80;99.90;;;;;;4992583;28;20227;-74
2021/12/22 11:39:39;;;;;;;20.50;15.55;;;2.80;99.90;;;;;;4990484;28;20211;-74
2021/12/22 11:42:29;;;;;;;22.42;15.18;;;2.70;99.90;;;;;;4990607;28;20761;-73
2021/12/22 11:45:19;;;;;;;19.50;14.50;;;2.60;99.90;;;;;;4980556;28;20222;-73
2021/12/22 11:48:05;;;;;;;19.25;13.13;;;2.50;99.90;;;;;;4983510;28;20246;-73
2021/12/22 11:50:52;;;;;;;19.58;13.23;;;2.50;99.90;;;;;;4983634;28;20680;-73
2021/12/22 11:53:54;;;;;;;23.23;14.15;;;2.40;99.90;;;;;;4987068;28;20285;-73
2021/12/22 11:56:42;;;;;;;22.75;14.57;;;2.40;99.90;;;;;;4986519;28;20222;-73
2021/12/22 11:59:35;;;;;;;23.10;12.60;;;2.30;99.90;;;;;;4990378;28;20257;-73
2021/12/22 12:02:31;;;;;;;24.20;14.32;;;2.30;99.90;;;;;;4983865;28;20214;-73
2021/12/22 12:05:19;;;;;;;18.42;11.95;;;2.30;99.90;;;;;;4982136;28;20226;-73
2021/12/22 12:08:17;;;;;;;19.08;12.75;;;2.40;99.90;;;;;;4986097;28;20301;-73
2021/12/22 12:11:03;;;;;;;18.35;13.20;;;2.50;99.90;;;;;;4988263;28;20273;-73
2021/12/22 12:13:53;;;;;;;20.02;13.95;;;2.50;99.90;;;;;;4980610;28;20206;-73
2021/12/22 12:22:48;;;;;;;19.98;12.95;;;3.00;99.90;;;;;;4979307;28;20261;-73
2021/12/22 12:25:36;;;;;;;20.55;12.00;;;3.20;99.90;;;;;;4982115;28;20234;-73
2021/12/22 12:28:23;;;;;;;15.90;10.88;;;3.40;99.90;;;;;;4984313;28;20219;-73
2021/12/22 12:31:08;;;;;;;17.85;12.18;;;3.60;99.90;;;;;;4987415;28;20202;-73
2021/12/22 12:34:14;;;;;;;23.10;11.45;;;4.10;99.90;;;;;;4983440;28;20206;-73
2021/12/22 12:37:00;;;;;;;17.70;10.70;;;4.80;99.90;;;;;;4991880;28;20588;-73
2021/12/22 12:39:56;;;;;;;18.77;11.65;;;5.70;99.90;;;;;;4981611;28;20207;-73
2021/12/22 12:42:58;;;;;;;16.55;11.43;;;6.40;99.90;;;;;;4979511;28;20203;-73
2021/12/22 12:45:44;;;;;;;16.50;10.27;;;7.00;97.70;;;;;;4984113;28;20234;-74
2021/12/22 12:48:31;;;;;;;19.60;11.70;;;7.60;83.20;;;;;;4983202;28;20222;-74
2021/12/22 12:51:19;;;;;;;15.73;11.23;;;7.80;77.30;;;;;;4996027;28;20206;-74
2021/12/22 12:54:07;;;;;;;17.40;11.57;;;8.20;74.30;;;;;;4987927;28;20203;-74
2021/12/22 12:56:55;;;;;;;12.83;10.33;;;8.40;73.20;;;;;;4981775;28;20234;-74
2021/12/22 12:59:51;;;;;;;14.73;9.90;;;8.60;66.30;;;;;;4983188;28;20421;-74
2021/12/22 13:02:37;;;;;;;13.50;10.27;;;8.50;64.60;;;;;;4977281;28;20432;-74
2021/12/22 13:05:23;;;;;;;12.47;9.20;;;8.50;61.40;;;;;;4981564;28;20460;-74
2021/12/22 13:08:09;;;;;;;15.57;10.07;;;8.10;61.10;;;;;;4982138;28;20479;-74
2021/12/22 13:10:57;;;;;;;12.23;9.40;;;7.80;64.90;;;;;;4982866;28;20462;-73
2021/12/22 13:16:44;;;;;;;13.13;9.45;;;6.60;73.90;;;;;;4987974;28;20469;-74
2021/12/22 13:19:42;;;;;;;23.33;10.25;;;5.90;84.50;;;;;;4990891;28;20679;-74
2021/12/22 13:22:30;;;;;;;14.10;10.25;;;5.40;90.60;;;;;;4975332;28;20238;-73
2021/12/22 13:25:18;;;;;;;14.82;9.57;;;5.00;94.00;;;;;;4971322;28;20234;-72
2021/12/22 13:28:05;;;;;;;14.15;10.00;;;4.70;97.60;;;;;;4980997;28;20646;-73
2021/12/22 13:30:55;;;;;;;12.90;9.82;;;4.30;97.30;;;;;;5003419;28;20250;-73
2021/12/22 13:33:46;;;;;;;12.63;9.38;;;4.20;99.90;;;;;;4987365;28;20679;-74
2021/12/22 13:36:32;;;;;;;15.35;10.85;;;4.00;99.90;;;;;;4984184;28;20270;-73
2021/12/22 13:39:18;;;;;;;13.43;10.18;;;3.80;99.90;;;;;;4985355;28;20269;-73
2021/12/22 13:42:06;;;;;;;14.48;9.40;;;3.60;99.90;;;;;;4982044;28;20277;-72
2021/12/22 13:44:52;;;;;;;13.95;10.30;;;3.50;99.90;;;;;;4987794;28;20215;-73
2021/12/22 13:47:38;;;;;;;15.77;9.40;;;3.50;99.90;;;;;;4984659;28;20339;-72
2021/12/22 13:50:25;;;;;;;11.45;8.93;;;3.40;99.90;;;;;;4986664;28;20318;-73
2021/12/22 13:53:11;;;;;;;15.88;9.32;;;3.30;99.90;;;;;;4977062;28;20214;-72
2021/12/22 13:55:58;;;;;;;15.60;9.52;;;3.30;99.90;;;;;;4992869;28;20230;-72
2021/12/22 13:58:46;;;;;;;16.15;9.73;;;3.30;99.90;;;;;;5000311;28;20194;-72
2021/12/22 14:01:40;;;;;;;13.98;8.90;;;3.20;99.90;;;;;;4989296;28;20223;-72
2021/12/22 14:04:29;;;;;;;15.73;9.50;;;3.20;99.90;;;;;;4985518;28;20293;-73
2021/12/22 14:07:21;;;;;;;14.70;10.52;;;3.10;99.90;;;;;;4989310;28;20274;-74
2021/12/22 14:10:11;;;;;;;14.70;8.90;;;3.00;99.90;;;;;;4987607;28;20354;-74
2021/12/22 14:12:59;;;;;;;16.48;10.23;;;3.00;99.90;;;;;;4983319;28;20678;-73
2021/12/22 14:15:44;;;;;;;13.48;9.20;;;3.00;99.90;;;;;;4987651;28;20776;-74
2021/12/22 14:18:34;;;;;;;10.13;8.27;;;2.90;99.90;;;;;;4989818;28;20210;-73
2021/12/22 14:21:21;;;;;;;16.02;8.93;;;2.90;99.90;;;;;;4986836;28;20744;-75
2021/12/22 14:24:08;;;;;;;16.00;10.32;;;2.90;99.90;;;;;;4987790;28;20206;-74
2021/12/22 14:26:58;;;;;;;13.43;9.20;;;2.80;99.90;;;;;;4985598;28;20286;-74
2021/12/22 14:29:49;;;;;;;12.25;9.02;;;2.70;99.90;;;;;;4986502;28;20206;-73
2021/12/22 14:32:37;;;;;;;13.27;9.18;;;2.70;99.90;;;;;;4980727;28;20206;-74